Time;durP1;ratioP1;P1;durP2;ratioP2;P2;SDS_P1;SDS_P2;PMS_P1;PMS_P2;Temp;Humidity;BMP_temperature;BMP_pressure;BME280_temperature;BME280_humidity;BME280_pressure;Samples;Min_cycle;Max_cycle;Signal;HPM_P1;HPM_P2
2022/03/11 00:01:23;;;;;;;7.60;7.00;;;-1.70;99.90;;;;;;5145571;27;21071;-59
2022/03/11 00:04:03;;;;;;;6.88;6.28;;;-1.50;99.90;;;;;;5105120;27;20541;-59
2022/03/11 00:06:43;;;;;;;7.45;6.88;;;-1.40;99.90;;;;;;5104647;27;20546;-59
2022/03/11 00:09:23;;;;;;;7.40;6.72;;;-1.50;99.90;;;;;;5145468;27;20560;-58
2022/03/11 00:12:03;;;;;;;6.82;6.18;;;-1.50;99.90;;;;;;5105431;27;20537;-59
2022/03/11 00:14:43;;;;;;;7.30;6.70;;;-1.50;99.90;;;;;;5125968;27;20540;-59
2022/03/11 00:17:23;;;;;;;7.50;6.90;;;-1.50;99.90;;;;;;5084615;28;20688;-58
2022/03/11 00:20:03;;;;;;;5.47;4.97;;;-1.60;99.90;;;;;;5145485;27;20546;-59
2022/03/11 00:22:42;;;;;;;7.95;7.25;;;-1.70;99.90;;;;;;5105362;27;20670;-58
2022/03/11 00:25:22;;;;;;;7.63;6.80;;;-1.60;99.90;;;;;;5084364;27;20572;-59
2022/03/11 00:28:02;;;;;;;7.00;6.40;;;-1.60;99.90;;;;;;5084652;28;21042;-59
2022/03/11 00:30:42;;;;;;;7.07;6.40;;;-1.60;99.90;;;;;;5083743;28;20663;-59
2022/03/11 00:33:22;;;;;;;8.25;5.88;;;-1.80;99.90;;;;;;5082951;28;20668;-59
2022/03/11 00:36:01;;;;;;;7.07;6.30;;;-1.90;99.90;;;;;;5104574;27;20665;-59
2022/03/11 00:38:41;;;;;;;6.68;6.18;;;-1.80;99.90;;;;;;5125146;27;20591;-59
2022/03/11 00:41:21;;;;;;;6.50;6.00;;;-1.90;99.90;;;;;;5083743;28;20569;-59
2022/03/11 00:44:01;;;;;;;6.55;5.95;;;-2.10;99.90;;;;;;5084228;27;20894;-59
2022/03/11 00:46:41;;;;;;;6.50;5.90;;;-2.20;99.90;;;;;;5084082;28;20542;-59
2022/03/11 00:49:20;;;;;;;5.97;5.47;;;-2.20;99.90;;;;;;5083852;28;20840;-58
2022/03/11 00:52:00;;;;;;;6.38;5.78;;;-2.20;99.90;;;;;;5105257;27;20657;-59
2022/03/11 00:54:40;;;;;;;6.90;5.30;;;-2.10;99.90;;;;;;5104878;27;21027;-59
2022/03/11 00:57:20;;;;;;;6.40;5.80;;;-2.10;99.90;;;;;;5104548;27;20549;-59
2022/03/11 01:00:00;;;;;;;6.18;5.68;;;-2.30;99.90;;;;;;5145421;27;20653;-59
2022/03/11 01:02:40;;;;;;;6.35;5.80;;;-2.30;99.90;;;;;;5084646;28;20667;-59
2022/03/11 01:05:22;;;;;;;6.57;5.95;;;-2.50;99.90;;;;;;5084131;28;20560;-59
2022/03/11 01:08:01;;;;;;;6.43;5.82;;;-2.80;99.90;;;;;;5146426;27;20535;-59
2022/03/11 01:10:41;;;;;;;6.88;6.28;;;-2.80;99.90;;;;;;5084006;28;20728;-59
2022/03/11 01:13:20;;;;;;;6.50;5.80;;;-2.90;99.90;;;;;;5085068;28;20668;-59
2022/03/11 01:16:00;;;;;;;6.97;6.10;;;-2.50;99.90;;;;;;5084047;28;20707;-58
2022/03/11 01:18:40;;;;;;;5.40;4.88;;;-2.30;99.90;;;;;;5146190;27;21026;-59
2022/03/11 01:21:20;;;;;;;5.63;5.13;;;-2.40;99.90;;;;;;5084075;27;20542;-59
2022/03/11 01:24:00;;;;;;;5.50;5.07;;;-2.50;99.90;;;;;;5126002;27;20540;-59
2022/03/11 01:26:40;;;;;;;5.18;4.68;;;-2.60;99.90;;;;;;5105424;27;20996;-59
2022/03/11 01:29:19;;;;;;;7.20;5.70;;;-2.50;99.90;;;;;;5104600;27;20534;-59
2022/03/11 01:31:59;;;;;;;6.20;5.60;;;-2.60;99.90;;;;;;5085143;27;20544;-59
2022/03/11 01:34:39;;;;;;;5.50;5.00;;;-2.70;99.90;;;;;;5084264;28;20668;-59
2022/03/11 01:37:19;;;;;;;5.78;5.18;;;-2.90;99.90;;;;;;5146097;27;20551;-59
2022/03/11 01:39:59;;;;;;;6.80;5.90;;;-2.80;99.90;;;;;;5083722;28;20668;-59
2022/03/11 01:42:39;;;;;;;6.45;5.25;;;-2.70;99.90;;;;;;5104584;27;20669;-59
2022/03/11 01:45:18;;;;;;;7.57;5.75;;;-2.60;99.90;;;;;;5084259;27;20909;-59
2022/03/11 01:47:58;;;;;;;5.45;4.93;;;-2.60;99.90;;;;;;5105258;27;21159;-59
2022/03/11 01:50:39;;;;;;;5.85;5.25;;;-2.50;99.90;;;;;;5125385;27;20536;-59
2022/03/11 01:53:20;;;;;;;6.07;5.40;;;-2.60;99.90;;;;;;5084763;28;21016;-59
2022/03/11 01:55:59;;;;;;;4.97;4.55;;;-2.80;99.90;;;;;;5105332;27;20665;-59
2022/03/11 01:58:39;;;;;;;7.78;5.63;;;-2.80;99.90;;;;;;5084562;27;20543;-59
2022/03/11 02:01:20;;;;;;;6.60;5.85;;;-2.70;99.90;;;;;;5084007;28;20664;-58
2022/03/11 02:03:59;;;;;;;5.65;5.25;;;-2.60;99.90;;;;;;5084464;28;20852;-59
2022/03/11 02:06:39;;;;;;;5.60;5.10;;;-2.60;99.90;;;;;;5084261;27;20543;-59
2022/03/11 02:09:19;;;;;;;6.35;5.10;;;-2.70;99.90;;;;;;5145450;27;20542;-59
2022/03/11 02:11:58;;;;;;;4.82;4.40;;;-2.50;99.90;;;;;;5105034;27;20666;-60
2022/03/11 02:14:38;;;;;;;5.35;4.43;;;-2.60;99.90;;;;;;5145863;27;20658;-58
2022/03/11 02:17:18;;;;;;;4.97;4.50;;;-2.90;99.90;;;;;;5125516;27;20687;-59
2022/03/11 02:19:58;;;;;;;7.38;4.43;;;-3.20;99.90;;;;;;5103939;27;21035;-59
2022/03/11 02:22:51;;;;;;;5.75;5.25;;;-3.30;99.90;;;;;;5123748;27;20934;-59
2022/03/11 02:25:30;;;;;;;5.65;5.15;;;-3.40;99.90;;;;;;5084680;28;20671;-59
2022/03/11 02:28:10;;;;;;;6.00;5.40;;;-3.40;99.90;;;;;;5105216;27;20681;-59
2022/03/11 02:30:50;;;;;;;5.85;5.35;;;-3.40;99.90;;;;;;5084042;28;20655;-59
2022/03/11 02:33:30;;;;;;;5.53;5.03;;;-3.50;99.90;;;;;;5083197;28;21033;-59
2022/03/11 02:36:10;;;;;;;5.88;5.38;;;-3.70;99.90;;;;;;5084691;27;20890;-59
2022/03/11 02:38:50;;;;;;;6.15;5.50;;;-3.80;99.90;;;;;;5105589;27;20573;-59
2022/03/11 02:41:29;;;;;;;6.00;5.40;;;-3.90;99.90;;;;;;5104476;27;20654;-59
2022/03/11 02:44:09;;;;;;;6.55;4.97;;;-3.70;99.90;;;;;;5104744;27;20533;-59
2022/03/11 02:46:49;;;;;;;7.30;5.22;;;-3.70;99.90;;;;;;5083914;27;20543;-59
2022/03/11 02:49:29;;;;;;;5.50;5.00;;;-3.60;99.90;;;;;;5145505;27;21189;-59
2022/03/11 02:52:09;;;;;;;6.47;5.85;;;-3.60;99.90;;;;;;5159013;27;20655;-59
2022/03/11 02:54:49;;;;;;;5.65;4.80;;;-3.70;99.90;;;;;;5146296;27;20530;-59
2022/03/11 02:57:28;;;;;;;5.28;4.78;;;-3.80;99.90;;;;;;5084219;28;20687;-59
2022/03/11 03:00:10;;;;;;;5.72;5.00;;;-3.70;99.90;;;;;;5083809;28;21068;-59
2022/03/11 03:02:49;;;;;;;6.82;4.97;;;-3.60;99.90;;;;;;5084621;27;20535;-59
2022/03/11 03:05:30;;;;;;;5.15;4.70;;;-3.60;99.90;;;;;;5084100;28;21313;-59
2022/03/11 03:08:09;;;;;;;8.25;5.65;;;-3.80;99.90;;;;;;5125370;27;21079;-59
2022/03/11 03:10:49;;;;;;;8.20;5.28;;;-4.00;99.90;;;;;;5084000;27;20872;-59
2022/03/11 03:13:29;;;;;;;5.10;4.60;;;-4.10;99.90;;;;;;5084200;28;20663;-59
2022/03/11 03:16:08;;;;;;;5.68;5.18;;;-4.00;99.90;;;;;;5145971;27;20542;-59
2022/03/11 03:18:48;;;;;;;5.05;4.65;;;-3.90;99.90;;;;;;5084544;28;20672;-59
2022/03/11 03:21:28;;;;;;;5.88;5.25;;;-3.70;99.90;;;;;;5084078;27;20739;-59
2022/03/11 03:24:08;;;;;;;5.40;4.90;;;-3.80;99.90;;;;;;5084610;27;20916;-58
2022/03/11 03:26:48;;;;;;;5.72;5.22;;;-3.80;99.90;;;;;;5104787;27;20541;-59
2022/03/11 03:29:28;;;;;;;5.63;5.10;;;-3.90;99.90;;;;;;5084273;28;20660;-59
2022/03/11 03:32:08;;;;;;;5.45;4.95;;;-4.00;99.90;;;;;;5125720;27;20545;-59
2022/03/11 03:34:47;;;;;;;5.20;4.80;;;-4.00;99.90;;;;;;5084914;27;20535;-60
2022/03/11 03:37:27;;;;;;;5.78;5.18;;;-3.90;99.90;;;;;;5104853;27;20557;-59
2022/03/11 03:40:09;;;;;;;4.70;4.30;;;-4.00;99.90;;;;;;5084498;27;21154;-59
2022/03/11 03:42:49;;;;;;;5.55;5.05;;;-4.00;99.90;;;;;;5105618;27;20835;-59
2022/03/11 03:45:30;;;;;;;5.20;4.70;;;-4.00;99.90;;;;;;5104569;27;20677;-59
2022/03/11 03:48:10;;;;;;;5.82;5.18;;;-4.10;99.90;;;;;;5105121;27;20682;-60
2022/03/11 03:50:49;;;;;;;5.63;5.15;;;-4.20;99.90;;;;;;5083689;27;20577;-59
2022/03/11 03:53:29;;;;;;;6.40;5.28;;;-4.20;99.90;;;;;;5104966;27;21107;-59
2022/03/11 03:56:09;;;;;;;7.00;5.18;;;-4.30;99.90;;;;;;5105224;27;21078;-59
2022/03/11 03:58:49;;;;;;;5.45;5.05;;;-4.40;99.90;;;;;;5146372;27;20661;-59
2022/03/11 04:01:29;;;;;;;8.80;5.45;;;-4.20;99.90;;;;;;5145454;27;20665;-59
2022/03/11 04:04:11;;;;;;;5.07;4.68;;;-4.10;99.90;;;;;;5085112;27;20584;-59
2022/03/11 04:06:50;;;;;;;6.40;5.05;;;-4.10;99.90;;;;;;5084572;28;20700;-59
2022/03/11 04:09:30;;;;;;;4.40;3.92;;;-4.30;99.90;;;;;;5145711;27;20678;-59
2022/03/11 04:12:10;;;;;;;5.65;5.03;;;-4.40;99.90;;;;;;5085272;28;20837;-59
2022/03/11 04:14:49;;;;;;;5.20;4.70;;;-4.40;99.90;;;;;;5084224;27;20586;-59
2022/03/11 04:17:29;;;;;;;5.22;4.70;;;-4.10;99.90;;;;;;5104707;27;20550;-59
2022/03/11 04:20:11;;;;;;;4.68;4.28;;;-4.10;99.90;;;;;;5084099;28;20679;-59
2022/03/11 04:22:51;;;;;;;5.07;4.68;;;-4.10;99.90;;;;;;5146588;27;20542;-59
2022/03/11 04:25:30;;;;;;;6.07;5.00;;;-4.30;99.90;;;;;;5124912;27;20536;-59
2022/03/11 04:28:10;;;;;;;5.05;4.43;;;-4.20;99.90;;;;;;5084837;28;20555;-59
2022/03/11 04:30:50;;;;;;;5.47;4.95;;;-4.10;99.90;;;;;;5145017;27;20673;-59
2022/03/11 04:33:30;;;;;;;5.00;4.50;;;-4.10;99.90;;;;;;5084040;27;20571;-59
2022/03/11 04:36:10;;;;;;;5.18;4.75;;;-4.20;99.90;;;;;;5084682;28;20679;-58
2022/03/11 04:38:51;;;;;;;5.07;4.68;;;-4.30;99.90;;;;;;5146076;27;20554;-59
2022/03/11 04:41:31;;;;;;;5.20;4.70;;;-4.30;99.90;;;;;;5124918;27;20558;-59
2022/03/11 04:44:11;;;;;;;6.80;5.47;;;-4.50;99.90;;;;;;5146257;27;21059;-59
2022/03/11 04:46:51;;;;;;;4.43;4.03;;;-4.60;99.90;;;;;;5084195;27;20604;-59
2022/03/11 04:49:31;;;;;;;6.03;5.50;;;-4.30;99.90;;;;;;5084019;27;21161;-59
2022/03/11 04:52:10;;;;;;;4.75;4.22;;;-4.20;99.90;;;;;;5159827;27;20887;-59
2022/03/11 04:54:50;;;;;;;4.90;4.50;;;-4.00;99.90;;;;;;5105061;27;20530;-59
2022/03/11 04:57:30;;;;;;;5.53;4.80;;;-4.00;99.90;;;;;;5084623;28;20714;-59
2022/03/11 05:00:11;;;;;;;5.70;5.20;;;-4.10;99.90;;;;;;5084097;27;20920;-59
2022/03/11 05:02:52;;;;;;;5.60;5.10;;;-4.40;99.90;;;;;;5084854;28;20656;-59
2022/03/11 05:05:31;;;;;;;4.90;4.50;;;-4.50;99.90;;;;;;5104786;27;20574;-59
2022/03/11 05:08:11;;;;;;;5.32;4.82;;;-4.60;99.90;;;;;;5105077;27;20549;-59
2022/03/11 05:10:51;;;;;;;5.20;4.72;;;-4.50;99.90;;;;;;5084244;27;20996;-59
2022/03/11 05:13:30;;;;;;;6.68;4.35;;;-4.40;99.90;;;;;;5145973;27;20542;-59
2022/03/11 05:16:10;;;;;;;5.60;5.03;;;-4.30;99.90;;;;;;5104336;27;20546;-59
2022/03/11 05:18:53;;;;;;;5.28;4.78;;;-4.30;99.90;;;;;;5125326;27;20956;-58
2022/03/11 05:21:32;;;;;;;4.50;4.10;;;-4.40;99.90;;;;;;5145035;27;20522;-59
2022/03/11 05:24:11;;;;;;;6.68;4.65;;;-4.70;99.90;;;;;;5084260;27;20539;-59
2022/03/11 05:26:51;;;;;;;5.05;4.60;;;-4.60;99.90;;;;;;5084499;28;20563;-59
2022/03/11 05:29:32;;;;;;;4.60;4.20;;;-4.70;99.90;;;;;;5145464;27;21058;-60
2022/03/11 05:32:14;;;;;;;5.05;4.60;;;-4.70;99.90;;;;;;5084446;28;20676;-59
2022/03/11 05:34:54;;;;;;;4.88;4.47;;;-4.70;99.90;;;;;;5103334;27;20979;-59
2022/03/11 05:37:34;;;;;;;5.65;5.20;;;-4.70;99.90;;;;;;5146037;27;20858;-59
2022/03/11 05:40:14;;;;;;;5.63;4.63;;;-4.60;99.90;;;;;;5104422;27;20724;-59
2022/03/11 05:42:53;;;;;;;5.47;4.85;;;-4.50;99.90;;;;;;5105264;27;21101;-59
2022/03/11 05:45:33;;;;;;;5.45;4.90;;;-4.40;99.90;;;;;;5084339;28;20540;-59
2022/03/11 05:48:13;;;;;;;6.78;5.15;;;-4.40;99.90;;;;;;5084728;27;20917;-59
2022/03/11 05:50:53;;;;;;;6.45;5.95;;;-4.40;99.90;;;;;;5084036;27;20551;-59
2022/03/11 05:53:33;;;;;;;4.28;3.97;;;-4.30;99.90;;;;;;5146113;27;20543;-59
2022/03/11 05:56:13;;;;;;;5.32;4.55;;;-4.40;99.90;;;;;;5125676;27;20536;-59
2022/03/11 05:58:53;;;;;;;5.50;5.00;;;-4.30;99.90;;;;;;5085034;28;20578;-59
2022/03/11 06:01:32;;;;;;;5.28;4.78;;;-4.10;99.90;;;;;;5104757;27;20538;-60
2022/03/11 06:04:12;;;;;;;4.70;4.30;;;-4.20;99.90;;;;;;5084842;28;20664;-59
2022/03/11 06:06:52;;;;;;;5.68;4.90;;;-4.10;99.90;;;;;;5084463;28;20656;-59
2022/03/11 06:09:32;;;;;;;5.20;4.70;;;-4.00;99.90;;;;;;5104066;27;20579;-59
2022/03/11 06:12:12;;;;;;;5.93;5.43;;;-3.90;99.90;;;;;;5084487;28;20539;-59
2022/03/11 06:14:51;;;;;;;5.47;5.05;;;-3.90;99.90;;;;;;5084204;27;20925;-59
2022/03/11 06:17:31;;;;;;;6.20;5.60;;;-3.90;99.90;;;;;;5145531;27;20584;-59
2022/03/11 06:20:13;;;;;;;6.07;5.45;;;-3.90;99.90;;;;;;5124776;27;20536;-59
2022/03/11 06:22:53;;;;;;;5.78;5.28;;;-3.90;99.90;;;;;;5105173;27;20622;-59
2022/03/11 06:25:32;;;;;;;6.32;5.68;;;-3.70;99.90;;;;;;5104112;27;20665;-59
2022/03/11 06:28:12;;;;;;;5.82;5.25;;;-3.60;99.90;;;;;;5084323;28;20675;-59
2022/03/11 06:30:52;;;;;;;5.85;5.35;;;-3.60;99.90;;;;;;5145411;27;20535;-59
2022/03/11 06:33:32;;;;;;;5.25;4.55;;;-3.60;99.90;;;;;;5082976;27;20553;-57
2022/03/11 06:36:11;;;;;;;5.40;4.95;;;-3.40;99.90;;;;;;5084867;28;20667;-58
2022/03/11 06:38:51;;;;;;;5.38;4.72;;;-3.20;99.90;;;;;;5084894;28;20676;-59
2022/03/11 06:41:31;;;;;;;4.70;4.28;;;-3.20;99.90;;;;;;5125508;27;20540;-59
2022/03/11 06:44:11;;;;;;;5.22;4.82;;;-3.10;99.90;;;;;;5085057;28;20963;-59
2022/03/11 06:46:51;;;;;;;5.22;4.72;;;-2.90;99.90;;;;;;5084516;28;21021;-58
2022/03/11 06:49:31;;;;;;;6.95;6.35;;;-2.80;99.90;;;;;;5083826;28;20663;-59
2022/03/11 06:52:10;;;;;;;5.70;5.20;;;-2.70;99.90;;;;;;5085274;27;20543;-59
2022/03/11 06:54:50;;;;;;;5.47;4.97;;;-2.80;99.90;;;;;;5085553;27;20545;-58
2022/03/11 06:57:31;;;;;;;5.47;4.18;;;-2.70;99.90;;;;;;5126133;27;21018;-59
2022/03/11 07:00:11;;;;;;;5.47;5.07;;;-2.50;99.90;;;;;;5105021;27;20538;-59
2022/03/11 07:02:50;;;;;;;4.70;4.30;;;-2.40;99.90;;;;;;5066807;27;20914;-58
2022/03/11 07:05:30;;;;;;;5.30;4.80;;;-2.40;99.90;;;;;;5146010;27;20538;-58
2022/03/11 07:08:10;;;;;;;5.07;4.50;;;-2.30;99.90;;;;;;5104620;27;20623;-58
2022/03/11 07:10:50;;;;;;;7.18;5.03;;;-2.20;99.90;;;;;;5104164;27;20655;-58
2022/03/11 07:13:30;;;;;;;5.15;4.65;;;-2.10;99.90;;;;;;5104420;27;20626;-57
2022/03/11 07:16:10;;;;;;;5.18;4.78;;;-2.00;99.90;;;;;;5104320;27;21111;-58
2022/03/11 07:18:49;;;;;;;6.95;4.80;;;-1.90;99.90;;;;;;5146133;27;20611;-58
2022/03/11 07:21:29;;;;;;;5.53;5.03;;;-1.90;99.90;;;;;;5124618;27;20656;-58
2022/03/11 07:24:09;;;;;;;5.78;5.10;;;-1.90;99.90;;;;;;5083949;28;20664;-58
2022/03/11 07:26:50;;;;;;;5.05;4.65;;;-1.80;99.90;;;;;;5083234;28;20664;-59
2022/03/11 07:29:30;;;;;;;5.75;5.22;;;-1.70;99.90;;;;;;5103567;27;20661;-58
2022/03/11 07:32:12;;;;;;;6.15;5.53;;;-1.60;99.90;;;;;;5103131;27;20992;-58
2022/03/11 07:34:51;;;;;;;6.13;5.53;;;-1.60;99.90;;;;;;5104083;27;21123;-58
2022/03/11 07:37:31;;;;;;;5.28;4.80;;;-1.50;99.90;;;;;;5125062;27;20675;-58
2022/03/11 07:40:12;;;;;;;6.55;5.25;;;-1.40;99.90;;;;;;5082844;28;20670;-58
2022/03/11 07:42:52;;;;;;;4.90;4.50;;;-1.20;99.90;;;;;;5103795;27;20549;-58
2022/03/11 07:45:32;;;;;;;5.15;4.72;;;-1.20;99.90;;;;;;5082818;28;20656;-58
2022/03/11 07:48:12;;;;;;;6.97;4.95;;;-1.10;99.90;;;;;;5082749;28;20703;-58
2022/03/11 07:50:51;;;;;;;4.90;4.50;;;-1.00;99.90;;;;;;5081494;28;20579;-58
2022/03/11 07:53:31;;;;;;;5.50;5.00;;;-0.90;99.90;;;;;;5122680;27;20539;-58
2022/03/11 07:56:12;;;;;;;6.55;5.63;;;-0.90;99.90;;;;;;5083974;27;21141;-58
2022/03/11 07:58:54;;;;;;;5.30;4.90;;;-0.80;99.90;;;;;;5125070;27;20552;-58
2022/03/11 08:01:35;;;;;;;5.82;5.32;;;-0.70;99.90;;;;;;5125342;27;20540;-58
2022/03/11 08:04:16;;;;;;;5.63;4.97;;;-0.60;99.90;;;;;;5084230;28;20659;-58
2022/03/11 08:06:55;;;;;;;5.43;4.93;;;-0.60;99.90;;;;;;5084705;28;20679;-58
2022/03/11 08:09:36;;;;;;;7.00;6.40;;;-0.50;99.90;;;;;;5084079;28;20668;-58
2022/03/11 08:12:15;;;;;;;5.00;4.60;;;-0.40;99.90;;;;;;5085351;28;20683;-58
2022/03/11 08:14:57;;;;;;;5.75;5.25;;;-0.30;99.90;;;;;;5104891;27;21009;-58
2022/03/11 08:17:36;;;;;;;4.55;4.15;;;-0.30;99.90;;;;;;5084490;27;20563;-58
2022/03/11 08:20:16;;;;;;;5.60;5.10;;;-0.20;99.90;;;;;;5104065;27;20661;-58
2022/03/11 08:22:56;;;;;;;6.65;5.95;;;-0.10;99.90;;;;;;5105130;27;20564;-58
2022/03/11 08:25:36;;;;;;;5.68;5.18;;;0.00;99.90;;;;;;5084344;27;21035;-58
2022/03/11 08:28:16;;;;;;;5.60;5.10;;;0.00;99.90;;;;;;5084798;28;20846;-58
2022/03/11 08:30:55;;;;;;;5.97;4.78;;;0.10;99.90;;;;;;5145298;27;20665;-58
2022/03/11 08:33:37;;;;;;;5.43;5.00;;;0.20;99.90;;;;;;5125438;27;20552;-58
2022/03/11 08:36:16;;;;;;;6.35;5.22;;;0.30;99.90;;;;;;5080692;28;20680;-58
2022/03/11 08:38:56;;;;;;;4.93;2.72;;;0.30;99.90;;;;;;5084027;27;20560;-58
2022/03/11 08:41:36;;;;;;;9.75;4.93;;;0.40;99.90;;;;;;5104118;27;20905;-58
2022/03/11 08:44:17;;;;;;;5.85;5.25;;;0.50;99.90;;;;;;5145521;27;20941;-58
2022/03/11 08:46:56;;;;;;;7.80;5.03;;;0.60;99.90;;;;;;5104070;27;21035;-58
2022/03/11 08:49:36;;;;;;;5.00;4.50;;;0.70;99.90;;;;;;5144837;27;20665;-57
2022/03/11 08:52:16;;;;;;;6.43;5.45;;;0.80;99.90;;;;;;5102866;27;20841;-58
2022/03/11 08:54:56;;;;;;;4.95;4.55;;;0.90;99.90;;;;;;5145106;27;21043;-58
2022/03/11 08:57:37;;;;;;;6.00;5.40;;;1.00;99.90;;;;;;5124427;27;20579;-58
2022/03/11 09:00:18;;;;;;;11.43;4.82;;;1.10;99.90;;;;;;5144566;27;20538;-58
2022/03/11 09:02:58;;;;;;;6.72;5.45;;;1.10;99.90;;;;;;5083877;28;21041;-58
2022/03/11 09:05:39;;;;;;;5.65;5.15;;;1.20;99.90;;;;;;5124452;27;20548;-57
2022/03/11 09:08:20;;;;;;;5.78;5.28;;;1.20;99.90;;;;;;5104401;27;20598;-58
2022/03/11 09:10:59;;;;;;;6.35;4.68;;;1.40;99.90;;;;;;5084379;28;20668;-58
2022/03/11 09:13:39;;;;;;;5.65;5.13;;;1.40;99.90;;;;;;5084347;28;20659;-58
2022/03/11 09:16:19;;;;;;;6.30;5.70;;;1.50;99.90;;;;;;5105327;27;21146;-58
2022/03/11 09:18:59;;;;;;;5.68;5.25;;;1.60;99.90;;;;;;5146061;27;20688;-57
2022/03/11 09:21:38;;;;;;;8.02;5.50;;;1.70;99.90;;;;;;5084968;27;20531;-58
2022/03/11 09:24:18;;;;;;;5.53;5.03;;;1.80;99.90;;;;;;5146117;27;21047;-58
2022/03/11 09:26:58;;;;;;;5.55;5.05;;;1.90;99.90;;;;;;5125297;27;20552;-58
2022/03/11 09:29:38;;;;;;;5.90;5.40;;;1.90;99.90;;;;;;5083464;27;20543;-58
2022/03/11 09:32:18;;;;;;;6.13;4.95;;;1.90;99.90;;;;;;5105154;27;20530;-58
2022/03/11 09:34:59;;;;;;;5.22;4.80;;;2.00;99.90;;;;;;5083878;28;20684;-58
2022/03/11 09:37:39;;;;;;;6.22;5.63;;;2.00;99.90;;;;;;5084193;28;20675;-58
2022/03/11 09:40:19;;;;;;;5.72;5.20;;;2.10;99.90;;;;;;5124783;27;20540;-58
2022/03/11 09:42:59;;;;;;;6.18;4.57;;;2.20;99.90;;;;;;5084733;27;20573;-58
2022/03/11 09:45:38;;;;;;;5.80;4.88;;;2.20;99.90;;;;;;5080756;27;20548;-58
2022/03/11 09:48:19;;;;;;;4.82;3.67;;;2.20;99.90;;;;;;5084248;27;21222;-58
2022/03/11 09:50:59;;;;;;;6.55;5.95;;;2.30;99.90;;;;;;5080037;27;20449;-58
2022/03/11 09:53:42;;;;;;;5.43;4.97;;;2.40;99.90;;;;;;5103979;27;21126;-58
2022/03/11 09:56:21;;;;;;;5.43;4.93;;;2.50;99.90;;;;;;5103870;27;20550;-57
2022/03/11 09:59:01;;;;;;;7.88;5.20;;;2.60;99.90;;;;;;5104523;27;20678;-58
2022/03/11 10:01:42;;;;;;;5.60;5.15;;;2.70;99.90;;;;;;5074382;28;20705;-58
2022/03/11 10:04:22;;;;;;;4.28;3.88;;;2.80;99.90;;;;;;5083148;27;20687;-58
2022/03/11 10:07:02;;;;;;;5.05;4.65;;;3.00;99.80;;;;;;5121973;27;20559;-58
2022/03/11 10:09:42;;;;;;;5.85;5.35;;;3.00;99.80;;;;;;5083188;27;20584;-58
2022/03/11 10:12:27;;;;;;;4.03;3.67;;;3.10;99.90;;;;;;5074705;28;21258;-58
2022/03/11 10:15:08;;;;;;;7.43;4.88;;;3.30;99.10;;;;;;5083676;27;20584;-58
2022/03/11 10:17:47;;;;;;;4.47;4.13;;;3.30;98.80;;;;;;5091671;27;21052;-57
2022/03/11 10:20:29;;;;;;;5.32;3.65;;;3.30;98.60;;;;;;5066008;28;21187;-57
2022/03/11 10:23:11;;;;;;;5.57;4.47;;;3.40;99.10;;;;;;5083690;28;20656;-58
2022/03/11 10:25:53;;;;;;;5.57;4.75;;;3.50;98.10;;;;;;5084024;28;20846;-57
2022/03/11 10:28:33;;;;;;;5.80;4.75;;;3.60;97.60;;;;;;5145473;27;20550;-57
2022/03/11 10:31:13;;;;;;;5.30;4.82;;;3.60;96.50;;;;;;5101391;27;20943;-59
2022/03/11 10:34:12;;;;;;;5.38;4.88;;;3.60;96.10;;;;;;5145194;27;20586;-58
2022/03/11 10:36:55;;;;;;;4.60;4.20;;;3.60;96.10;;;;;;5083317;28;20676;-58
2022/03/11 10:39:37;;;;;;;6.78;5.05;;;3.70;94.80;;;;;;5111101;27;20549;-58
2022/03/11 10:42:18;;;;;;;5.60;3.95;;;3.80;94.40;;;;;;5083428;27;20574;-58
2022/03/11 10:45:00;;;;;;;7.05;4.30;;;3.80;94.50;;;;;;5103815;27;20669;-57
2022/03/11 10:47:40;;;;;;;8.68;3.83;;;3.90;94.00;;;;;;5094075;27;21187;-57
2022/03/11 10:50:22;;;;;;;6.22;3.50;;;3.90;93.30;;;;;;5083401;28;20683;-58
2022/03/11 10:53:06;;;;;;;5.00;3.95;;;3.90;92.60;;;;;;5083830;28;21205;-58
2022/03/11 10:55:47;;;;;;;5.00;4.53;;;3.90;93.50;;;;;;5103208;27;20666;-58
2022/03/11 10:58:29;;;;;;;4.88;4.47;;;3.90;92.80;;;;;;5088220;27;20699;-57
2022/03/11 11:01:08;;;;;;;4.78;3.85;;;4.00;93.60;;;;;;5061402;28;20666;-58
2022/03/11 11:03:48;;;;;;;4.93;4.53;;;4.00;91.80;;;;;;5103908;27;20920;-58
2022/03/11 11:06:28;;;;;;;4.47;4.07;;;4.00;93.10;;;;;;5082657;27;20539;-58
2022/03/11 11:09:09;;;;;;;4.15;3.38;;;4.10;91.80;;;;;;5103615;27;20538;-58
2022/03/11 11:11:49;;;;;;;8.80;4.10;;;4.20;91.10;;;;;;5081788;28;20672;-58
2022/03/11 11:14:29;;;;;;;4.88;4.47;;;4.20;91.70;;;;;;5083464;28;20617;-57
2022/03/11 11:17:10;;;;;;;5.10;4.28;;;4.20;91.80;;;;;;5100627;27;20920;-58
2022/03/11 11:19:53;;;;;;;3.88;3.15;;;4.20;92.20;;;;;;5077624;27;20572;-58
2022/03/11 11:22:35;;;;;;;4.32;4.03;;;4.30;90.70;;;;;;5118866;27;20548;-58
2022/03/11 11:25:17;;;;;;;3.88;3.58;;;4.30;91.50;;;;;;5057891;27;20626;-58
2022/03/11 11:28:01;;;;;;;4.63;4.30;;;4.40;91.60;;;;;;5094445;27;20723;-57
2022/03/11 11:30:41;;;;;;;4.47;3.72;;;4.50;91.10;;;;;;5090143;27;21021;-58
2022/03/11 11:33:21;;;;;;;4.05;3.65;;;4.50;89.20;;;;;;5065888;28;21164;-58
2022/03/11 11:36:07;;;;;;;5.22;3.83;;;4.60;90.00;;;;;;5122586;27;20560;-57
2022/03/11 11:38:51;;;;;;;4.05;3.70;;;4.60;91.10;;;;;;5064541;27;2037502;-58
2022/03/11 11:41:32;;;;;;;5.07;4.68;;;4.60;90.30;;;;;;5083265;28;20555;-57
2022/03/11 11:44:11;;;;;;;5.13;4.00;;;4.70;91.20;;;;;;5147153;27;20669;-58
2022/03/11 11:47:10;;;;;;;6.47;4.25;;;4.70;90.90;;;;;;5080481;27;20596;-57
2022/03/11 11:49:52;;;;;;;4.43;4.03;;;4.80;91.00;;;;;;5143591;27;20564;-58
2022/03/11 11:52:35;;;;;;;4.35;4.05;;;4.90;88.30;;;;;;5059545;28;20591;-57
2022/03/11 11:55:17;;;;;;;4.13;3.78;;;4.90;89.60;;;;;;5068546;27;20989;-58
2022/03/11 11:57:57;;;;;;;4.53;4.22;;;5.00;87.80;;;;;;5098195;27;20570;-58
2022/03/11 12:00:38;;;;;;;6.95;3.72;;;5.00;86.30;;;;;;5102189;27;21032;-58
2022/03/11 12:03:18;;;;;;;4.18;3.80;;;5.00;85.40;;;;;;5080909;27;20538;-58
2022/03/11 12:05:58;;;;;;;4.40;4.10;;;5.00;87.50;;;;;;5081237;27;20596;-57
2022/03/11 12:08:49;;;;;;;4.55;4.20;;;5.10;86.80;;;;;;5080378;27;20601;-57
2022/03/11 12:11:44;;;;;;;4.15;3.60;;;5.20;84.50;;;;;;5121794;27;20955;-58
2022/03/11 12:14:24;;;;;;;4.40;4.10;;;5.30;83.10;;;;;;5102375;27;20681;-58
2022/03/11 12:17:09;;;;;;;4.95;4.53;;;5.30;83.10;;;;;;5095887;27;20570;-58
2022/03/11 12:19:49;;;;;;;3.85;3.55;;;5.40;84.00;;;;;;5100379;27;20546;-57
2022/03/11 12:22:33;;;;;;;4.00;3.70;;;5.40;84.70;;;;;;5129435;27;20558;-58
2022/03/11 12:25:12;;;;;;;4.20;3.83;;;5.50;84.10;;;;;;5143746;27;20555;-58
2022/03/11 12:28:07;;;;;;;6.43;3.70;;;5.50;83.00;;;;;;5148609;27;20673;-58
2022/03/11 12:30:56;;;;;;;4.50;4.13;;;5.50;82.80;;;;;;5082038;28;20660;-58
2022/03/11 12:33:37;;;;;;;4.82;4.18;;;5.50;83.40;;;;;;5150248;27;20665;-57
2022/03/11 12:36:19;;;;;;;6.47;4.45;;;5.60;83.70;;;;;;5083164;27;21072;-58
2022/03/11 12:38:58;;;;;;;5.35;3.80;;;5.70;80.50;;;;;;5101850;27;20576;-57
2022/03/11 12:41:38;;;;;;;4.55;4.18;;;5.70;81.20;;;;;;5103706;27;21056;-58
2022/03/11 12:44:18;;;;;;;3.70;3.40;;;5.80;80.60;;;;;;5082799;27;21080;-58
2022/03/11 12:46:58;;;;;;;4.22;3.90;;;5.80;77.90;;;;;;5079765;28;20686;-58
2022/03/11 12:49:38;;;;;;;4.10;3.80;;;5.70;78.20;;;;;;5065775;27;20573;-58
2022/03/11 12:52:26;;;;;;;4.88;3.70;;;5.80;79.50;;;;;;5080029;28;20684;-58
2022/03/11 12:55:20;;;;;;;5.72;3.67;;;5.80;79.80;;;;;;5075395;28;20707;-57
2022/03/11 12:58:02;;;;;;;7.38;4.00;;;5.80;79.00;;;;;;5068746;28;20693;-58
2022/03/11 13:00:43;;;;;;;4.15;3.85;;;5.80;77.70;;;;;;5115781;27;20552;-58
2022/03/11 13:03:28;;;;;;;6.70;3.92;;;5.80;81.10;;;;;;5145506;27;20689;-57
2022/03/11 13:06:08;;;;;;;3.42;3.13;;;5.90;79.80;;;;;;5093946;27;20660;-56
2022/03/11 13:08:48;;;;;;;5.22;3.55;;;6.00;78.20;;;;;;5116905;27;20560;-58
2022/03/11 13:11:28;;;;;;;6.20;3.85;;;6.10;76.00;;;;;;5064391;27;20574;-58
2022/03/11 13:14:08;;;;;;;6.47;4.05;;;6.10;77.30;;;;;;5077299;28;21064;-57
2022/03/11 13:16:53;;;;;;;10.05;4.07;;;6.20;75.80;;;;;;5076908;28;20980;-58
2022/03/11 13:19:34;;;;;;;4.18;3.80;;;6.20;73.80;;;;;;5064630;28;20674;-58
2022/03/11 13:22:13;;;;;;;4.03;3.63;;;6.30;74.30;;;;;;5081646;28;20682;-58
2022/03/11 13:25:04;;;;;;;7.47;3.80;;;6.30;72.50;;;;;;5083769;27;20532;-57
2022/03/11 13:27:43;;;;;;;5.47;3.75;;;6.30;71.20;;;;;;5110371;27;20549;-58
2022/03/11 13:30:37;;;;;;;3.40;2.70;;;6.30;71.80;;;;;;5099489;27;20995;-57
2022/03/11 13:33:22;;;;;;;6.55;3.92;;;6.30;68.60;;;;;;5082213;28;20672;-58
2022/03/11 13:36:10;;;;;;;5.00;4.53;;;6.20;69.30;;;;;;5081785;27;20536;-58
2022/03/11 13:38:58;;;;;;;3.72;3.42;;;6.20;67.20;;;;;;5093326;27;21078;-58
2022/03/11 13:41:45;;;;;;;4.43;3.30;;;6.20;67.00;;;;;;5072130;27;20596;-58
2022/03/11 13:44:27;;;;;;;6.35;4.18;;;6.20;68.00;;;;;;5088783;27;20562;-58
2022/03/11 13:47:10;;;;;;;4.30;3.67;;;6.20;67.70;;;;;;5078470;27;20557;-58
2022/03/11 13:49:51;;;;;;;4.53;3.90;;;6.30;69.20;;;;;;5083200;28;20660;-58
2022/03/11 13:52:41;;;;;;;5.47;3.97;;;6.30;71.30;;;;;;5080614;27;20535;-58
2022/03/11 13:55:21;;;;;;;3.05;2.83;;;6.40;69.20;;;;;;5084086;27;20557;-57
2022/03/11 13:58:15;;;;;;;5.03;3.72;;;6.40;66.00;;;;;;5138531;27;20687;-58
2022/03/11 14:00:56;;;;;;;13.63;4.10;;;6.40;65.10;;;;;;5082602;28;20691;-59